Bookmark and Share
Track history (hours):
 

Virginia

More information available from US FCC via Universal Licensing System and Coast Guard Vessel Documentation Center.

Last reported at 2014-Apr-17 23:33 UTC. Time now 2014-Apr-18 00:18 UTC.
Position N 34°41' W 076°40'.

Length 20 m; draft 2.9 m.

Type: Tug. MMSI: 366939110.

NotesDate/timePositionNaut miles runAvg speedWind from/ knotsBaromVisibWave heightAir tempDewpointWater temp
2014-Apr-17 23:33N 34°41' W 076°40'0 0.1
2014-Apr-17 22:31N 34°41' W 076°40'0 0.0
2014-Apr-17 21:31N 34°41' W 076°40'1 1.5
2014-Apr-17 20:33N 34°42' W 076°41'1 0.6
2014-Apr-17 19:33N 34°42' W 076°41'0 0.2
2014-Apr-17 18:33N 34°42' W 076°41'0 0.2
2014-Apr-17 17:32N 34°42' W 076°41'0 0.1
2014-Apr-17 16:32N 34°42' W 076°41'0 0.0
2014-Apr-17 15:32N 34°42' W 076°41'0 0.0
2014-Apr-17 14:32N 34°42' W 076°41'0 0.1
2014-Apr-17 13:32N 34°42' W 076°41'0 0.0
2014-Apr-17 12:32N 34°42' W 076°41'1 0.9
2014-Apr-17 11:33N 34°43' W 076°42'1 1.3
2014-Apr-17 10:33N 34°42' W 076°41'1 1.4
2014-Apr-17 09:31N 34°41' W 076°40'0 0.0
2014-Apr-17 08:31N 34°41' W 076°40'0 0.2
2014-Apr-17 07:32N 34°40' W 076°40'0 0.2
2014-Apr-17 06:33N 34°41' W 076°40'3 2.7
2014-Apr-17 05:31N 34°43' W 076°42'2 1.8
2014-Apr-17 04:33N 34°42' W 076°40'1 1.2
2014-Apr-17 03:33N 34°41' W 076°40'0 0.0
2014-Apr-17 02:33N 34°41' W 076°40'0 0.0
2014-Apr-17 01:33N 34°41' W 076°40'3 2.8
2014-Apr-17 00:33N 34°43' W 076°42'2 1.6
2014-Apr-16 23:34N 34°42' W 076°40'1 1.3
2014-Apr-16 22:33N 34°41' W 076°40'0 0.3
2014-Apr-16 21:31N 34°40' W 076°40'0 0.0
2014-Apr-16 20:31N 34°40' W 076°40'0 0.0
2014-Apr-16 19:31N 34°40' W 076°40'0 0.0
2014-Apr-16 18:33N 34°40' W 076°40'2 1.6
2014-Apr-16 17:33N 34°42' W 076°40'1 0.6
2014-Apr-16 16:33N 34°42' W 076°41'2 1.7
2014-Apr-16 15:31N 34°41' W 076°40'0 0.1
2014-Apr-16 14:31N 34°41' W 076°40'0 0.3
2014-Apr-16 13:33N 34°40' W 076°40'0 0.2
2014-Apr-16 12:32N 34°41' W 076°40'2 1.8
2014-Apr-16 11:33N 34°42' W 076°41'0 0.0
2014-Apr-16 10:33N 34°42' W 076°41'0 0.0
2014-Apr-16 09:33N 34°42' W 076°41'0 0.0
2014-Apr-16 08:33N 34°42' W 076°41'0 0.0
2014-Apr-16 07:33N 34°42' W 076°41'0 0.0
2014-Apr-16 06:33N 34°42' W 076°41'0 0.0
2014-Apr-16 05:33N 34°42' W 076°41'0 0.0
2014-Apr-16 04:33N 34°42' W 076°41'0 0.0
2014-Apr-16 03:33N 34°42' W 076°41'0 0.0
2014-Apr-16 02:33N 34°42' W 076°41'0 0.0
2014-Apr-16 01:33N 34°42' W 076°41'0 0.0
2014-Apr-16 00:33N 34°42' W 076°41'0 0.0
2014-Apr-15 23:33N 34°42' W 076°41'2 1.8
2014-Apr-15 22:33N 34°41' W 076°40'2 1.8
2014-Apr-15 21:33N 34°42' W 076°41'0 0.0
2014-Apr-15 20:33N 34°42' W 076°41'2 1.9
2014-Apr-15 19:34N 34°40' W 076°41'0 0.0
2014-Apr-15 18:33N 34°40' W 076°41'0 0.0
2014-Apr-15 17:30N 34°40' W 076°41'1 1.5
2014-Apr-15 16:33N 34°42' W 076°40'1 0.9
2014-Apr-15 15:33N 34°42' W 076°41'0 0.0
2014-Apr-15 14:33N 34°42' W 076°41'0 0.0
2014-Apr-15 12:34N 34°42' W 076°41'0 0.1
2014-Apr-15 11:32N 34°42' W 076°41'2 1.9
2014-Apr-15 10:33N 34°41' W 076°40'0 0.4
2014-Apr-15 09:34N 34°40' W 076°41'0 0.0
2014-Apr-15 08:33N 34°40' W 076°41'0 0.0
2014-Apr-15 07:33N 34°40' W 076°41'0 0.0
2014-Apr-15 06:33N 34°40' W 076°41'0 0.0
2014-Apr-15 05:33N 34°40' W 076°41'0 0.0
2014-Apr-15 03:32N 34°40' W 076°41'0 0.0
2014-Apr-15 02:32N 34°40' W 076°41'0 0.0
2014-Apr-15 01:32N 34°40' W 076°41'0 0.0
2014-Apr-15 00:31N 34°40' W 076°41'2 1.7
2014-Apr-14 23:34N 34°42' W 076°40'1 0.6
2014-Apr-14 22:31N 34°42' W 076°41'0 0.0
2014-Apr-14 21:31N 34°42' W 076°41'0 0.0
2014-Apr-14 20:31N 34°42' W 076°41'1 0.9
2014-Apr-14 19:31N 34°43' W 076°42'3 2.9
2014-Apr-14 18:33N 34°41' W 076°40'0 0.0
2014-Apr-14 17:33N 34°41' W 076°40'3 2.8
2014-Apr-14 16:33N 34°43' W 076°42'0 0.2
2014-Apr-14 15:34N 34°43' W 076°42'3 2.5
2014-Apr-14 14:33N 34°41' W 076°40'0 0.4
2014-Apr-14 13:34N 34°41' W 076°40'0 0.2
2014-Apr-14 11:31N 34°40' W 076°40'2 1.9
2014-Apr-14 10:31N 34°42' W 076°41'1 1.3
2014-Apr-14 09:34N 34°41' W 076°40'1 1.2
2014-Apr-14 08:32N 34°42' W 076°41'0 0.0
2014-Apr-14 07:32N 34°42' W 076°41'0 0.0
2014-Apr-14 06:32N 34°42' W 076°41'0 0.0
2014-Apr-14 05:32N 34°42' W 076°41'2 0.3
2014-Apr-13 22:32N 34°40' W 076°41'0 0.0
2014-Apr-13 21:32N 34°40' W 076°41'0 0.0
2014-Apr-13 20:32N 34°40' W 076°41'0 0.2
2014-Apr-13 19:33N 34°40' W 076°40'0 0.2
2014-Apr-13 18:33N 34°40' W 076°40'0 0.1
2014-Apr-13 17:31N 34°40' W 076°40'1 1.3
2014-Apr-13 16:34N 34°42' W 076°40'1 1.1
2014-Apr-13 15:32N 34°40' W 076°40'2 2.0
2014-Apr-13 14:33N 34°42' W 076°41'0 0.0
2014-Apr-13 13:33N 34°42' W 076°41'0 0.0
2014-Apr-13 12:33N 34°42' W 076°41'0 0.0
2014-Apr-13 11:33N 34°42' W 076°41'0 0.2
2014-Apr-13 10:33N 34°42' W 076°41'2 1.9
2014-Apr-13 09:32N 34°40' W 076°40'0 0.0
2014-Apr-13 08:32N 34°40' W 076°40'0 0.0
2014-Apr-13 07:32N 34°40' W 076°40'0 0.0
2014-Apr-13 06:32N 34°40' W 076°40'0 0.0
2014-Apr-13 05:32N 34°40' W 076°40'0 0.0
2014-Apr-13 04:29N 34°40' W 076°40'2 2.4
2014-Apr-13 03:31N 34°42' W 076°41'2 2.3
2014-Apr-13 02:33N 34°40' W 076°40'0 0.1
2014-Apr-13 01:31N 34°40' W 076°40'0 0.1
2014-Apr-13 00:33N 34°40' W 076°40'1 1.4
2014-Apr-12 23:33N 34°42' W 076°40'1 0.1
2014-Apr-12 06:22N 34°43' W 076°41'0 0.0
2014-Apr-12 05:31N 34°43' W 076°41'0 0.0
2014-Apr-12 04:31N 34°43' W 076°41'0 0.0
2014-Apr-12 03:31N 34°43' W 076°41'0 0.0
2014-Apr-12 02:31N 34°43' W 076°41'0 0.0
2014-Apr-12 01:31N 34°43' W 076°41'0 0.0
2014-Apr-12 00:34N 34°43' W 076°41'0 0.0
2014-Apr-11 23:33N 34°43' W 076°41'0 0.0
2014-Apr-11 22:33N 34°42' W 076°41'0 0.2
2014-Apr-11 21:34N 34°42' W 076°41'0 0.2
2014-Apr-11 20:33N 34°42' W 076°41'0 0.0
2014-Apr-11 19:33N 34°42' W 076°41'0 0.0
2014-Apr-11 18:33N 34°43' W 076°41'0 0.3
2014-Apr-11 17:32N 34°42' W 076°41'0 0.1
2014-Apr-11 16:32N 34°42' W 076°41'1 0.5
2014-Apr-11 15:33N 34°42' W 076°41'2 1.8
2014-Apr-11 14:33N 34°40' W 076°41'2 2.0
2014-Apr-11 13:32N 34°42' W 076°41'1 0.9
2014-Apr-11 12:31N 34°41' W 076°41'1 0.8
2014-Apr-11 11:33N 34°42' W 076°41'0 0.0
2014-Apr-11 10:33N 34°42' W 076°41'0 0.2
2014-Apr-11 09:32N 34°42' W 076°41'0 0.0
2014-Apr-11 08:32N 34°42' W 076°41'0 0.0
2014-Apr-11 07:31N 34°42' W 076°41'0 0.0
2014-Apr-11 06:31N 34°42' W 076°41'0 0.0
2014-Apr-11 05:31N 34°42' W 076°41'0 0.0
2014-Apr-11 04:31N 34°42' W 076°41'0 0.0
2014-Apr-11 03:31N 34°42' W 076°41'0 0.0
2014-Apr-11 02:31N 34°42' W 076°41'0 0.0
2014-Apr-11 01:31N 34°42' W 076°41'0 0.0
2014-Apr-11 00:31N 34°42' W 076°41'1 1.1
2014-Apr-10 23:33N 34°41' W 076°41'1 1.0
2014-Apr-10 22:33N 34°42' W 076°41'0 0.1
2014-Apr-10 21:31N 34°42' W 076°41'1 1.6
2014-Apr-10 20:34N 34°41' W 076°40'0 0.3
2014-Apr-10 19:33N 34°41' W 076°40'2 1.7
2014-Apr-10 18:32N 34°42' W 076°41'1 0.9
2014-Apr-10 17:33N 34°41' W 076°41'1 0.9
2014-Apr-10 16:32N 34°42' W 076°41'0 0.2
2014-Apr-10 15:33N 34°42' W 076°41'1 1.4
2014-Apr-10 14:31N 34°41' W 076°40'0 0.3
2014-Apr-10 13:33N 34°41' W 076°40'0 0.3
2014-Apr-10 12:33N 34°42' W 076°40'1 0.9
2014-Apr-10 11:32N 34°42' W 076°41'0 0.3
2014-Apr-10 10:32N 34°42' W 076°41'0 0.0
2014-Apr-10 09:32N 34°42' W 076°41'0 0.0
2014-Apr-10 08:32N 34°42' W 076°41'0 0.0
2014-Apr-10 07:32N 34°42' W 076°41'0 0.0
2014-Apr-10 06:32N 34°42' W 076°41'0 0.0
2014-Apr-10 05:32N 34°42' W 076°41'0 0.0
2014-Apr-10 04:32N 34°42' W 076°41'0 0.0
2014-Apr-10 03:32N 34°42' W 076°41'0 0.0
2014-Apr-10 02:32N 34°42' W 076°41'0 0.0
2014-Apr-10 01:32N 34°42' W 076°41'0 0.0
2014-Apr-10 00:32N 34°42' W 076°41'0 0.1
2014-Apr-09 23:33N 34°42' W 076°41'1 1.0
2014-Apr-09 22:31N 34°41' W 076°41'1 1.1
2014-Apr-09 21:33N 34°42' W 076°41'0 0.0
2014-Apr-09 20:33N 34°42' W 076°41'2 1.5
2014-Apr-09 19:33N 34°41' W 076°40'0 0.1
2014-Apr-09 18:32N 34°41' W 076°40'1 1.2
2014-Apr-09 17:31N 34°42' W 076°41'0 0.3
2014-Apr-09 16:31N 34°42' W 076°41'0 0.3
2014-Apr-09 15:33N 34°42' W 076°41'0 0.0
2014-Apr-09 14:31N 34°42' W 076°41'0 0.0
2014-Apr-09 13:33N 34°42' W 076°41'0 0.0
2014-Apr-09 12:31N 34°42' W 076°41'0 0.2
2014-Apr-09 11:33N 34°42' W 076°41'0 0.2
2014-Apr-09 10:33N 34°42' W 076°41'0 0.1
2014-Apr-09 09:33N 34°42' W 076°41'0 0.0
2014-Apr-09 08:33N 34°42' W 076°41'0 0.0
2014-Apr-09 07:33N 34°42' W 076°41'0 0.0
2014-Apr-09 06:33N 34°42' W 076°41'0 0.0
2014-Apr-09 05:33N 34°42' W 076°41'0 0.0
2014-Apr-09 04:33N 34°42' W 076°41'0 0.0
2014-Apr-09 03:33N 34°42' W 076°41'0 0.0
2014-Apr-09 02:33N 34°42' W 076°41'0 0.0
2014-Apr-09 01:33N 34°42' W 076°41'0 0.0
2014-Apr-09 00:33N 34°42' W 076°41'0 0.3
2014-Apr-08 23:32N 34°42' W 076°41'0 0.0
2014-Apr-08 22:32N 34°42' W 076°41'0 0.2
2014-Apr-08 21:33N 34°42' W 076°41'0 0.2
2014-Apr-08 20:33N 34°42' W 076°41'0 0.1
2014-Apr-08 19:31N 34°43' W 076°41'0 0.2
2014-Apr-08 18:33N 34°42' W 076°41'0 0.1
2014-Apr-08 17:32N 34°42' W 076°41'0 0.1
2014-Apr-08 16:32N 34°42' W 076°41'0 0.1
2014-Apr-08 15:31N 34°42' W 076°41'0 0.2
2014-Apr-08 14:32N 34°42' W 076°41'0 0.1
2014-Apr-08 13:33N 34°42' W 076°41'0 0.1
2014-Apr-08 12:31N 34°42' W 076°41'0 0.2
2014-Apr-08 11:33N 34°42' W 076°41'0 0.0
2014-Apr-08 10:32N 34°42' W 076°41'0 0.3
2014-Apr-08 09:31N 34°42' W 076°41'0 0.0
2014-Apr-08 08:31N 34°42' W 076°41'0 0.0
2014-Apr-08 07:31N 34°42' W 076°41'0 0.0
2014-Apr-08 06:31N 34°42' W 076°41'0 0.0
2014-Apr-08 05:31N 34°42' W 076°41'0 0.0
2014-Apr-08 04:31N 34°42' W 076°41'0 0.0
2014-Apr-08 03:31N 34°42' W 076°41'0 0.0
2014-Apr-08 02:28N 34°42' W 076°41'0 0.0
2014-Apr-08 01:31N 34°42' W 076°41'0 0.0
2014-Apr-08 00:31N 34°42' W 076°41'  

Dump ship's entire track history

sailing weather and tide predictions

Virginia — WCW4062 — position and weather